createdAt,value
2023-07-24T00:03:00.173Z,99437.78
2023-07-24T00:05:46.579Z,99434.97
2023-07-24T00:08:32.713Z,99440.09
2023-07-24T00:11:18.909Z,99451.56
2023-07-24T00:14:05.131Z,99445.94
2023-07-24T00:16:51.517Z,99458.16
2023-07-24T00:19:36.935Z,99435.47
2023-07-24T00:22:23.061Z,99435.56
2023-07-24T00:25:10.262Z,99435.94
2023-07-24T00:27:56.656Z,99436.38
2023-07-24T00:30:43.676Z,99439.13
2023-07-24T00:33:29.908Z,99411.59
2023-07-24T00:36:15.569Z,99429.94
2023-07-24T00:39:01.581Z,99426.31
2023-07-24T00:41:50.124Z,99404.31
2023-07-24T00:44:36.102Z,99437.78
2023-07-24T00:47:22.716Z,99436.41
2023-07-24T00:50:09.598Z,99444.31
2023-07-24T00:52:55.729Z,99444.66
2023-07-24T00:55:42.853Z,99426.34
2023-07-24T00:58:29.307Z,99434.72
2023-07-24T01:01:18.216Z,99447.50
2023-07-24T01:04:05.583Z,99431.97
2023-07-24T01:06:52.383Z,99442.28
2023-07-24T01:09:37.980Z,99421.22
2023-07-24T01:12:33.454Z,99434.72
2023-07-24T01:15:28.878Z,99439.84
2023-07-24T01:18:17.241Z,99428.28
2023-07-24T01:21:03.253Z,99430.69
2023-07-24T01:24:35.208Z,99393.25
2023-07-24T01:27:25.659Z,99435.16
2023-07-24T01:30:12.969Z,99430.38
2023-07-24T01:32:58.368Z,99420.81
2023-07-24T01:35:45.125Z,99403.75
2023-07-24T01:38:35.745Z,99417.75
2023-07-24T01:41:22.320Z,99425.69
2023-07-24T01:44:07.842Z,99409.38
2023-07-24T01:46:53.993Z,99424.94
2023-07-24T01:49:40.024Z,99430.47
2023-07-24T01:52:27.456Z,99408.56
2023-07-24T01:55:13.528Z,99414.19
2023-07-24T01:57:59.788Z,99389.91
2023-07-24T02:00:45.191Z,99407.09
2023-07-24T02:03:31.251Z,99396.78
2023-07-24T02:06:16.998Z,99400.84
2023-07-24T02:09:03.565Z,99417.13
2023-07-24T02:11:49.467Z,99421.88
2023-07-24T02:14:35.324Z,99428.63
2023-07-24T02:17:21.159Z,99389.97
2023-07-24T02:20:07.660Z,99425.88
2023-07-24T02:23:02.859Z,99426.28
2023-07-24T02:25:52.369Z,99413.97
2023-07-24T02:28:38.168Z,99414.00
2023-07-24T02:31:24.377Z,99402.03
2023-07-24T02:34:10.384Z,99381.34
2023-07-24T02:36:56.404Z,99392.94
2023-07-24T02:39:42.270Z,99421.28
2023-07-24T02:42:28.261Z,99425.63
2023-07-24T02:45:14.380Z,99422.88
2023-07-24T02:48:01.169Z,99416.56
2023-07-24T02:50:50.961Z,99403.03
2023-07-24T02:53:36.855Z,99414.97
2023-07-24T02:56:22.957Z,99419.72
2023-07-24T02:59:09.092Z,99419.31
2023-07-24T03:01:54.798Z,99413.38
2023-07-24T03:04:41.474Z,99414.94
2023-07-24T03:07:27.002Z,99386.66
2023-07-24T03:10:13.035Z,99393.44
2023-07-24T03:12:58.714Z,99388.66
2023-07-24T03:15:56.056Z,99402.63
2023-07-24T03:18:41.772Z,99391.06
2023-07-24T03:21:27.534Z,99388.34
2023-07-24T03:24:13.623Z,99416.13
2023-07-24T03:26:59.636Z,99420.09
2023-07-24T03:29:45.687Z,99385.88
2023-07-24T03:32:32.004Z,99413.41
2023-07-24T03:35:17.994Z,99396.22
2023-07-24T03:38:03.921Z,99411.88
2023-07-24T03:40:50.930Z,99409.94
2023-07-24T03:43:36.676Z,99407.56
2023-07-24T03:46:22.306Z,99397.66
2023-07-24T03:49:08.153Z,99402.50
2023-07-24T03:51:53.653Z,99377.78
2023-07-24T03:54:39.748Z,99399.78
2023-07-24T03:57:25.545Z,99394.63
2023-07-24T04:00:12.204Z,99386.66
2023-07-24T04:02:57.835Z,99380.38
2023-07-24T04:05:43.630Z,99398.75
2023-07-24T04:08:29.267Z,99372.09
2023-07-24T04:11:15.699Z,99390.06
2023-07-24T04:14:01.576Z,99351.47
2023-07-24T04:16:47.714Z,99355.91
2023-07-24T04:19:33.591Z,99374.28
2023-07-24T04:22:19.928Z,99368.75
2023-07-24T04:25:06.153Z,99354.06
2023-07-24T04:27:51.945Z,99379.16
2023-07-24T04:30:38.165Z,99378.41
2023-07-24T04:33:28.170Z,99374.44
2023-07-24T04:36:15.829Z,99368.91
2023-07-24T04:39:04.239Z,99377.28
2023-07-24T04:41:51.792Z,99372.53
2023-07-24T04:44:37.906Z,99388.03
2023-07-24T04:47:23.504Z,99363.78
2023-07-24T04:50:10.137Z,99360.63
2023-07-24T04:52:55.924Z,99365.81
2023-07-24T04:55:41.879Z,99374.59
2023-07-24T04:58:27.578Z,99382.91
2023-07-24T05:01:14.205Z,99378.94
2023-07-24T05:03:59.877Z,99361.06
2023-07-24T05:06:45.747Z,99388.09
2023-07-24T05:09:31.383Z,99385.69
2023-07-24T05:12:17.380Z,99373.41
2023-07-24T05:15:03.551Z,99377.38
2023-07-24T05:17:49.475Z,99381.75
2023-07-24T05:20:35.023Z,99346.31
2023-07-24T05:23:21.531Z,99383.69
2023-07-24T05:26:07.076Z,99387.28
2023-07-24T05:28:54.003Z,99360.19
2023-07-24T05:31:39.864Z,99388.41
2023-07-24T05:34:26.852Z,99360.09
2023-07-24T05:37:12.640Z,99374.91
2023-07-24T05:39:58.589Z,99381.19
2023-07-24T05:42:44.691Z,99385.16
2023-07-24T05:45:30.762Z,99385.97
2023-07-24T05:48:16.382Z,99373.69
2023-07-24T05:51:02.386Z,99327.56
2023-07-24T05:53:48.386Z,99350.31
2023-07-24T05:56:34.428Z,99372.22
2023-07-24T05:59:20.068Z,99382.97
2023-07-24T06:02:06.463Z,99359.16
2023-07-24T06:04:52.246Z,99362.00
2023-07-24T06:07:38.566Z,99352.91
2023-07-24T06:10:24.120Z,99350.53
2023-07-24T06:13:10.244Z,99343.41
2023-07-24T06:15:56.171Z,99332.69
2023-07-24T06:18:44.002Z,99325.91
2023-07-24T06:21:29.826Z,99304.00
2023-07-24T06:24:16.063Z,99309.47
2023-07-24T06:27:02.139Z,99319.72
2023-07-24T06:29:51.300Z,99321.22
2023-07-24T06:32:39.243Z,99327.94
2023-07-24T06:35:25.510Z,99313.19
2023-07-24T06:38:11.082Z,99317.09
2023-07-24T06:40:57.303Z,99317.41
2023-07-24T06:43:43.944Z,99295.16
2023-07-24T06:46:31.230Z,99326.91
2023-07-24T06:49:17.253Z,99317.81
2023-07-24T06:52:03.592Z,99313.44
2023-07-24T06:54:49.094Z,99293.97
2023-07-24T06:57:35.187Z,99309.00
2023-07-24T07:00:20.823Z,99312.94
2023-07-24T07:03:06.764Z,99304.19
2023-07-24T07:05:52.945Z,99302.91
2023-07-24T07:08:39.180Z,99305.88
2023-07-24T07:11:25.276Z,99299.38
2023-07-24T07:14:11.649Z,99293.28
2023-07-24T07:16:57.193Z,99290.34
2023-07-24T07:19:42.990Z,99284.97
2023-07-24T07:22:28.918Z,99273.72
2023-07-24T07:25:17.324Z,99286.16
2023-07-24T07:28:02.967Z,99283.56
2023-07-24T07:30:49.392Z,99282.59
2023-07-24T07:33:35.393Z,99283.22
2023-07-24T07:36:23.631Z,99276.50
2023-07-24T07:39:10.759Z,99276.22
2023-07-24T07:42:07.999Z,99268.09
2023-07-24T07:45:02.438Z,99276.38
2023-07-24T07:47:50.491Z,99245.13
2023-07-24T07:50:36.717Z,99265.19
2023-07-24T07:53:23.988Z,99268.34
2023-07-24T07:56:09.829Z,99259.78
2023-07-24T07:58:56.258Z,99258.41
2023-07-24T08:01:43.216Z,99232.66
2023-07-24T08:04:29.242Z,99270.19
2023-07-24T08:07:14.931Z,99260.09
2023-07-24T08:10:00.875Z,99261.22
2023-07-24T08:12:46.991Z,99265.03
2023-07-24T08:15:39.194Z,99250.84
2023-07-24T08:18:25.299Z,99256.25
2023-07-24T08:21:11.202Z,99242.63
2023-07-24T08:23:59.189Z,99259.00
2023-07-24T08:26:46.431Z,99248.88
2023-07-24T08:29:32.701Z,99249.97
2023-07-24T08:32:21.360Z,99247.09
2023-07-24T08:35:07.741Z,99245.16
2023-07-24T08:38:02.332Z,99247.06
2023-07-24T08:40:48.587Z,99242.22
2023-07-24T08:43:37.251Z,99225.25
2023-07-24T08:46:26.355Z,99248.38
2023-07-24T08:49:14.122Z,99233.94
2023-07-24T08:52:01.889Z,99222.94
2023-07-24T08:54:48.649Z,99226.41
2023-07-24T08:57:35.768Z,99225.69
2023-07-24T09:00:22.180Z,99233.94
2023-07-24T09:03:09.252Z,99221.09
2023-07-24T09:05:55.744Z,99214.97
2023-07-24T09:08:43.232Z,99207.00
2023-07-24T09:11:29.143Z,99225.25
2023-07-24T09:14:24.638Z,99227.00
2023-07-24T09:17:12.382Z,99158.50
2023-07-24T09:19:58.954Z,99217.94
2023-07-24T09:23:12.037Z,99215.22
2023-07-24T09:26:00.400Z,99215.09
2023-07-24T09:28:54.299Z,99210.66
2023-07-24T09:31:40.392Z,99187.31
2023-07-24T09:34:26.957Z,99206.31
2023-07-24T09:37:27.449Z,99191.66
2023-07-24T09:40:15.921Z,99188.38
2023-07-24T09:45:58.158Z,99180.22
2023-07-24T09:51:51.383Z,99179.38
2023-07-24T09:54:58.190Z,99141.44
2023-07-24T09:57:45.251Z,99162.16
2023-07-24T10:00:32.550Z,99166.38
2023-07-24T10:03:19.253Z,99165.50
2023-07-24T10:06:05.641Z,99162.16
2023-07-24T10:08:53.661Z,99161.72
2023-07-24T10:11:39.791Z,99168.75
2023-07-24T10:14:26.825Z,99153.84
2023-07-24T10:17:12.618Z,99158.97
2023-07-24T10:20:04.881Z,99148.97
2023-07-24T10:22:51.617Z,99156.69
2023-07-24T10:25:44.812Z,99154.38
2023-07-24T10:28:34.613Z,99155.97
2023-07-24T10:31:23.755Z,99134.34
2023-07-24T10:34:10.490Z,99145.59
2023-07-24T10:37:04.386Z,99143.16
2023-07-24T10:39:50.241Z,99101.69
2023-07-24T10:42:37.432Z,99152.22
2023-07-24T10:45:22.970Z,99165.53
2023-07-24T10:48:12.510Z,99150.31
2023-07-24T10:50:59.815Z,99145.44
2023-07-24T10:53:48.971Z,99148.28
2023-07-24T10:56:34.634Z,99093.94
2023-07-24T10:59:20.410Z,99149.81
2023-07-24T11:02:06.490Z,99141.53
2023-07-24T11:04:52.769Z,99140.88
2023-07-24T11:07:38.610Z,99115.38
2023-07-24T11:10:24.933Z,99143.38
2023-07-24T11:13:12.587Z,99140.41
2023-07-24T11:16:05.360Z,99131.66
2023-07-24T11:18:55.121Z,99116.78
2023-07-24T11:21:42.303Z,99117.44
2023-07-24T11:24:27.996Z,99123.84
2023-07-24T11:27:20.336Z,99119.47
2023-07-24T11:30:07.027Z,99113.22
2023-07-24T11:32:53.106Z,99113.91
2023-07-24T11:35:41.090Z,99112.78
2023-07-24T11:38:27.137Z,99107.56
2023-07-24T11:41:13.897Z,99108.56
2023-07-24T11:44:00.113Z,99122.50
2023-07-24T11:46:45.939Z,99100.84
2023-07-24T11:49:32.917Z,99113.81
2023-07-24T11:52:18.672Z,99110.03
2023-07-24T11:55:05.571Z,99104.28
2023-07-24T11:58:01.692Z,99108.63
2023-07-24T12:00:49.065Z,99110.34
2023-07-24T12:03:37.728Z,99096.84
2023-07-24T12:06:25.270Z,99091.97
2023-07-24T12:09:14.578Z,99094.66
2023-07-24T12:12:00.909Z,99096.88
2023-07-24T12:14:46.471Z,99094.22
2023-07-24T12:17:32.533Z,99084.31
2023-07-24T12:20:18.793Z,99080.38
2023-07-24T12:23:05.244Z,99077.88
2023-07-24T12:25:51.407Z,99065.81
2023-07-24T12:28:37.746Z,99062.16
2023-07-24T12:31:26.790Z,99065.13
2023-07-24T12:34:13.063Z,99025.09
2023-07-24T12:36:58.794Z,98996.63
2023-07-24T12:39:48.988Z,99049.09
2023-07-24T12:42:35.114Z,99033.47
2023-07-24T12:45:21.194Z,99005.03
2023-07-24T12:48:06.625Z,99038.00
2023-07-24T12:50:53.234Z,99034.22
2023-07-24T12:53:41.563Z,98998.16
2023-07-24T12:56:38.311Z,99008.56
2023-07-24T12:59:26.749Z,99010.00
2023-07-24T13:02:12.750Z,99009.53
2023-07-24T13:04:58.609Z,99004.34
2023-07-24T13:07:44.747Z,99000.19
2023-07-24T13:10:30.348Z,98968.59
2023-07-24T13:13:16.548Z,98996.34
2023-07-24T13:16:02.948Z,98989.59
2023-07-24T13:18:49.068Z,98991.16
2023-07-24T13:21:34.801Z,98983.97
2023-07-24T13:24:21.183Z,98975.81
2023-07-24T13:27:08.739Z,98954.19
2023-07-24T13:29:54.932Z,98977.09
2023-07-24T13:32:41.808Z,98969.31
2023-07-24T13:35:28.344Z,98968.88
2023-07-24T13:38:15.753Z,98974.03
2023-07-24T13:41:02.794Z,98977.66
2023-07-24T13:43:48.936Z,98951.00
2023-07-24T13:46:37.296Z,98957.72
2023-07-24T13:49:25.714Z,98953.97
2023-07-24T13:52:11.943Z,98962.44
2023-07-24T13:54:58.295Z,98946.75
2023-07-24T13:57:44.605Z,98942.69
2023-07-24T14:00:30.563Z,98918.97
2023-07-24T14:03:16.571Z,98917.56
2023-07-24T14:06:02.609Z,98918.19
2023-07-24T14:08:48.591Z,98921.16
2023-07-24T14:11:34.606Z,98918.66
2023-07-24T14:14:21.270Z,98895.63
2023-07-24T14:17:07.256Z,98910.06
2023-07-24T14:19:53.774Z,98891.06
2023-07-24T14:22:39.487Z,98871.94
2023-07-24T14:25:25.955Z,98893.56
2023-07-24T14:28:11.927Z,98888.88
2023-07-24T14:30:58.327Z,98889.34
2023-07-24T14:33:43.890Z,98885.28
2023-07-24T14:36:35.067Z,98871.94
2023-07-24T14:39:21.178Z,98854.41
2023-07-24T14:42:07.928Z,98866.97
2023-07-24T14:44:54.244Z,98862.75
2023-07-24T14:47:40.313Z,98852.56
2023-07-24T14:50:25.973Z,98853.19
2023-07-24T14:53:12.069Z,98852.56
2023-07-24T14:55:57.666Z,98843.78
2023-07-24T14:58:46.491Z,98849.44
2023-07-24T15:01:33.129Z,98835.66
2023-07-24T15:04:19.756Z,98835.66
2023-07-24T15:07:06.115Z,98822.50
2023-07-24T15:09:52.232Z,98821.09
2023-07-24T15:12:37.819Z,98820.00
2023-07-24T15:15:23.755Z,98811.41
2023-07-24T15:18:11.261Z,98785.38
2023-07-24T15:20:57.800Z,98805.28
2023-07-24T15:23:43.734Z,98793.25
2023-07-24T15:26:29.907Z,98797.13
2023-07-24T15:29:19.862Z,98794.94
2023-07-24T15:32:07.427Z,98776.47
2023-07-24T15:34:53.330Z,98777.72
2023-07-24T15:37:39.314Z,98781.16
2023-07-24T15:40:24.970Z,98772.41
2023-07-24T15:43:11.536Z,98778.19
2023-07-24T15:45:57.623Z,98760.97
2023-07-24T15:48:44.019Z,98767.38
2023-07-24T15:51:31.185Z,98755.00
2023-07-24T15:54:17.613Z,98747.19
2023-07-24T15:57:03.288Z,98741.38
2023-07-24T15:59:49.167Z,98733.38
2023-07-24T16:02:35.201Z,98750.00
2023-07-24T16:05:22.741Z,98733.09
2023-07-24T16:08:08.292Z,98714.28
2023-07-24T16:10:54.230Z,98713.84
2023-07-24T16:13:40.799Z,98713.16
2023-07-24T16:16:26.671Z,98711.28
2023-07-24T16:19:21.293Z,98705.66
2023-07-24T16:22:07.387Z,98685.19
2023-07-24T16:24:53.221Z,98689.69
2023-07-24T16:27:39.092Z,98679.38
2023-07-24T16:30:24.920Z,98674.22
2023-07-24T16:33:11.118Z,98670.00
2023-07-24T16:35:56.738Z,98656.09
2023-07-24T16:38:42.898Z,98660.28
2023-07-24T16:41:28.405Z,98656.22
2023-07-24T16:44:15.905Z,98654.97
2023-07-24T16:49:51.081Z,98636.50
2023-07-24T16:52:36.829Z,98634.00
2023-07-24T16:55:22.817Z,98627.88
2023-07-24T16:58:08.400Z,98639.16
2023-07-24T17:00:54.696Z,98651.94
2023-07-24T17:03:40.501Z,98645.81
2023-07-24T17:06:26.610Z,98655.94
2023-07-24T17:09:12.292Z,98620.22
2023-07-24T17:11:58.297Z,98663.41
2023-07-24T17:14:43.792Z,98662.13
2023-07-24T17:17:29.881Z,98665.84
2023-07-24T17:20:15.596Z,98666.13
2023-07-24T17:23:03.789Z,98663.28
2023-07-24T17:25:49.535Z,98661.19
2023-07-24T17:28:35.358Z,98643.25
2023-07-24T17:31:21.614Z,98665.44
2023-07-24T17:34:07.879Z,98663.88
2023-07-24T17:36:53.555Z,98670.09
2023-07-24T17:39:39.501Z,98627.00
2023-07-24T17:42:25.215Z,98652.06
2023-07-24T17:45:11.242Z,98586.78
2023-07-24T17:47:57.667Z,98645.75
2023-07-24T17:50:43.863Z,98628.81
2023-07-24T17:53:29.401Z,98653.94
2023-07-24T17:56:15.216Z,98655.78
2023-07-24T17:59:00.815Z,98647.63
2023-07-24T18:01:47.213Z,98655.03
2023-07-24T18:04:32.970Z,98652.47
2023-07-24T18:07:19.317Z,98638.38
2023-07-24T18:10:09.041Z,98633.00
2023-07-24T18:12:55.791Z,98619.78
2023-07-24T18:15:42.370Z,98638.53
2023-07-24T18:18:28.899Z,98610.84
2023-07-24T18:21:14.948Z,98613.88
2023-07-24T18:24:05.994Z,98613.69
2023-07-24T18:26:51.878Z,98645.97
2023-07-24T18:29:38.070Z,98636.78
2023-07-24T18:32:26.063Z,98632.84
2023-07-24T18:35:12.877Z,98629.38
2023-07-24T18:37:59.163Z,98636.31
2023-07-24T18:40:45.410Z,98630.59
2023-07-24T18:43:30.890Z,98630.31
2023-07-24T18:46:20.012Z,98654.28
2023-07-24T18:49:06.088Z,98661.00
2023-07-24T18:51:53.264Z,98662.78
2023-07-24T18:54:40.112Z,98614.44
2023-07-24T18:57:26.678Z,98626.66
2023-07-24T19:00:31.534Z,98637.97
2023-07-24T19:03:37.412Z,98652.06
2023-07-24T19:06:23.537Z,98645.78
2023-07-24T19:09:09.952Z,98642.75
2023-07-24T19:11:55.890Z,98648.22
2023-07-24T19:14:41.860Z,98646.28
2023-07-24T19:17:27.419Z,98636.66
2023-07-24T19:20:13.856Z,98657.28
2023-07-24T19:23:00.149Z,98648.63
2023-07-24T19:25:47.343Z,98644.00
2023-07-24T19:28:32.744Z,98637.38
2023-07-24T19:31:18.722Z,98659.00
2023-07-24T19:34:04.143Z,98663.09
2023-07-24T19:36:50.147Z,98675.53
2023-07-24T19:39:35.662Z,98659.34
2023-07-24T19:42:21.887Z,98657.44
2023-07-24T19:45:07.844Z,98657.63
2023-07-24T19:47:53.650Z,98650.97
2023-07-24T19:50:39.357Z,98664.19
2023-07-24T19:53:26.925Z,98643.81
2023-07-24T19:56:12.439Z,98657.03
2023-07-24T19:58:58.341Z,98659.91
2023-07-24T20:01:43.709Z,98648.13
2023-07-24T20:04:29.747Z,98640.88
2023-07-24T20:07:18.893Z,98620.13
2023-07-24T20:10:05.475Z,98643.91
2023-07-24T20:12:51.285Z,98620.47
2023-07-24T20:15:37.476Z,98622.09
2023-07-24T20:18:22.979Z,98639.50
2023-07-24T20:21:09.154Z,98645.03
2023-07-24T20:23:55.450Z,98661.69
2023-07-24T20:26:41.269Z,98655.22
2023-07-24T20:29:26.868Z,98666.75
2023-07-24T20:32:13.468Z,98668.13
2023-07-24T20:34:59.368Z,98650.31
2023-07-24T20:37:45.294Z,98643.56
2023-07-24T20:40:31.254Z,98644.44
2023-07-24T20:43:17.268Z,98618.75
2023-07-24T20:46:14.230Z,98586.59
2023-07-24T20:49:00.199Z,98633.16
2023-07-24T20:51:46.262Z,98615.31
2023-07-24T20:54:32.518Z,98606.13
2023-07-24T20:57:18.048Z,98606.19
2023-07-24T21:00:04.327Z,98597.06
2023-07-24T21:02:51.948Z,98576.91
2023-07-24T21:05:38.675Z,98606.66
2023-07-24T21:08:24.444Z,98619.72
2023-07-24T21:11:10.279Z,98615.84
2023-07-24T21:13:55.873Z,98580.97
2023-07-24T21:16:41.653Z,98625.84
2023-07-24T21:19:27.480Z,98623.31
2023-07-24T21:22:14.394Z,98630.66
2023-07-24T21:25:00.069Z,98648.66
2023-07-24T21:27:46.392Z,98642.44
2023-07-24T21:30:32.064Z,98649.25
2023-07-24T21:33:18.368Z,98614.94
2023-07-24T21:36:04.789Z,98641.97
2023-07-24T21:38:53.064Z,98630.22
2023-07-24T21:41:39.016Z,98650.06
2023-07-24T21:44:27.420Z,98653.38
2023-07-24T21:47:13.362Z,98663.00
2023-07-24T21:50:00.310Z,98681.03
2023-07-24T21:52:46.433Z,98687.03
2023-07-24T21:55:32.201Z,98715.09
2023-07-24T21:58:18.144Z,98778.50
2023-07-24T22:01:04.341Z,98762.16
2023-07-24T22:03:49.959Z,98741.44
2023-07-24T22:06:36.178Z,98768.13
2023-07-24T22:09:21.998Z,98777.84
2023-07-24T22:12:08.043Z,98757.34
2023-07-24T22:14:54.183Z,98725.41
2023-07-24T22:17:40.001Z,98738.72
2023-07-24T22:23:14.829Z,98738.13
2023-07-24T22:26:03.393Z,98727.78
2023-07-24T22:28:49.172Z,98722.28
2023-07-24T22:31:34.875Z,98685.50
2023-07-24T22:34:20.824Z,98688.66
2023-07-24T22:37:07.879Z,98668.16
2023-07-24T22:39:53.966Z,98661.81
2023-07-24T22:42:39.501Z,98645.22
2023-07-24T22:45:26.100Z,98635.78
2023-07-24T22:48:11.972Z,98629.47
2023-07-24T22:50:57.686Z,98630.25
2023-07-24T22:53:44.059Z,98607.38
2023-07-24T22:56:30.096Z,98625.19
2023-07-24T22:59:23.072Z,98612.16
2023-07-24T23:02:09.146Z,98629.97
2023-07-24T23:04:55.132Z,98630.38
2023-07-24T23:07:41.060Z,98609.03
2023-07-24T23:10:26.491Z,98621.28
2023-07-24T23:13:12.437Z,98620.09
2023-07-24T23:16:00.563Z,98624.44
2023-07-24T23:18:46.292Z,98628.41
2023-07-24T23:21:32.223Z,98641.84
2023-07-24T23:24:18.241Z,98644.59
2023-07-24T23:27:03.994Z,98621.72
2023-07-24T23:29:50.130Z,98645.41
2023-07-24T23:32:35.842Z,98654.16
2023-07-24T23:35:21.826Z,98654.16
2023-07-24T23:38:07.549Z,98629.69
2023-07-24T23:41:00.921Z,98681.53
2023-07-24T23:43:48.145Z,98670.06
2023-07-24T23:46:35.588Z,98636.09
2023-07-24T23:49:21.530Z,98672.47
2023-07-24T23:52:08.077Z,98634.13
2023-07-24T23:54:54.251Z,98668.94
2023-07-24T23:57:40.080Z,98674.50
